Conway, NH (03818)

5:07 PM EDT on August 21, 2014 (GMT -0400)
101 Pollard St | Change Station
CLOSE
Current Station
Personal Weather Station
Location: Conway, NH
Elevation: 489 ft
Nearby Weather Stations

Elev 489 ft 43.98 °N, 71.11 °W | Updated 5 seconds ago

Clear
Clear
67.1 °F
Feels Like 67.1 °F
N
0.0
Wind Variable Wind from NNE
Gusts 0.0 mph

Today
High -- | Low -- °F
--% Chance of Precip.
Yesterday
High -- | Low -- °F
Precip. -- in
5:55 AM 7:39 PM
Waning Crescent, 12% visible
Pressure 29.90 in
Visibility 10.0 miles
Clouds Clear
Dew Point 61 °F
Humidity 82%
Rainfall 0.00 in
Snow Depth Not available.
UV 3 out of 12
Pollen 8.00 out of 12
Ozone Good
Flu Activity Not available.
METAR KCWN 212056Z AUTO 14012G16KT 10SM CLR 26/05 A3018 RMK AO2 SLP123 T02550050

More Conditions Fewer Conditions

Pressure 29.90 in
Visibility 10.0 miles
Clouds Clear
Dew Point 61 °F
Humidity 82%
Rainfall 0.00 in
Snow Depth Not available.
UV 3 out of 12
Pollen 8.00 out of 12
Ozone Good
Flu Activity Not available.
METAR KCWN 212056Z AUTO 14012G16KT 10SM CLR 26/05 A3018 RMK AO2 SLP123 T02550050

More Conditions Fewer Conditions

10-Day Weather Forecast

Almanac

Astronomy

Aug. 21, 2014 Rise Set
Actual Time 5:55 AM EDT 7:39 PM EDT
Civil Twilight 5:24 AM EDT 8:09 PM EDT
Nautical Twilight 4:47 AM EDT 8:47 PM EDT
Astronomical Twilight 4:06 AM EDT 9:27 PM EDT
Moon 2:19 AM EDT 5:08 PM EDT
Length of Visible Light 14h 45m
Length of Day
13h 43m
Tomorrow will be 2m 47s shorter.
Waning Crescent, 12% of the Moon is Illuminated
Today
Waning Crescent
Aug 25
New
Sep 2
First Quarter
Sep 8
Full
Sep 15
Last Quarter

Today's Extremes

State Highs State Lows

Community

WunderPhotos

Upload Photos

1,746,019 photos uploaded!

WunderBlogs® & News

Nearby

Air Quality

  Air Quality AQ Index Pollutant
Yesterday Good
OZONE
Current Good
OZONE
Thursday Good
PM2.5
Thursday Good
OZONE
Friday Good
PM2.5
Friday Good
OZONE

Snow Depth

Station Depth Elevation
No new snow has been reported.

Earthquake Activity

City Distance Mag. Time & Date
No recent earthquake activity has been reported nearby.
Minimum magnitude displayed is 2.5.

Coastal Water Temperatures

Place Temperature
No Stations Reporting

Nearby Weather Stations